sensor_id;sensor_type;location;lat;lon;timestamp;pressure;altitude;pressure_sealevel;temperature;humidity
57114;BME280;42994;51.606;9.988;2023-01-27T00:02:18;99464.44;;;-1.30;100.00
57114;BME280;42994;51.606;9.988;2023-01-27T00:04:46;99455.72;;;-1.31;100.00
57114;BME280;42994;51.606;9.988;2023-01-27T00:07:13;99461.69;;;-1.29;100.00
57114;BME280;42994;51.606;9.988;2023-01-27T00:09:39;99460.00;;;-1.30;100.00
57114;BME280;42994;51.606;9.988;2023-01-27T00:12:17;99460.88;;;-1.29;100.00
57114;BME280;42994;51.606;9.988;2023-01-27T00:15:02;99458.97;;;-1.27;100.00
57114;BME280;42994;51.606;9.988;2023-01-27T00:17:30;99457.19;;;-1.27;100.00
57114;BME280;42994;51.606;9.988;2023-01-27T00:19:58;99455.47;;;-1.28;100.00
57114;BME280;42994;51.606;9.988;2023-01-27T00:22:24;99457.28;;;-1.28;100.00
57114;BME280;42994;51.606;9.988;2023-01-27T00:25:08;99459.91;;;-1.28;100.00
57114;BME280;42994;51.606;9.988;2023-01-27T00:27:35;99458.09;;;-1.28;100.00
57114;BME280;42994;51.606;9.988;2023-01-27T00:30:02;99457.19;;;-1.27;100.00
57114;BME280;42994;51.606;9.988;2023-01-27T00:32:29;99453.59;;;-1.26;100.00
57114;BME280;42994;51.606;9.988;2023-01-27T00:35:16;99452.66;;;-1.25;100.00
57114;BME280;42994;51.606;9.988;2023-01-27T00:37:43;99450.13;;;-1.26;100.00
57114;BME280;42994;51.606;9.988;2023-01-27T00:40:11;99449.19;;;-1.25;100.00
57114;BME280;42994;51.606;9.988;2023-01-27T00:42:39;99438.66;;;-1.25;100.00
57114;BME280;42994;51.606;9.988;2023-01-27T00:45:06;99446.44;;;-1.24;100.00
57114;BME280;42994;51.606;9.988;2023-01-27T00:47:51;99448.22;;;-1.24;100.00
57114;BME280;42994;51.606;9.988;2023-01-27T00:50:19;99442.22;;;-1.26;100.00
57114;BME280;42994;51.606;9.988;2023-01-27T00:52:46;99439.59;;;-1.26;100.00
57114;BME280;42994;51.606;9.988;2023-01-27T00:55:13;99443.81;;;-1.24;100.00
57114;BME280;42994;51.606;9.988;2023-01-27T00:57:42;99438.47;;;-1.22;100.00
57114;BME280;42994;51.606;9.988;2023-01-27T01:00:09;99442.75;;;-1.21;100.00
57114;BME280;42994;51.606;9.988;2023-01-27T01:02:36;99441.09;;;-1.22;100.00
57114;BME280;42994;51.606;9.988;2023-01-27T01:05:04;99444.66;;;-1.23;100.00
57114;BME280;42994;51.606;9.988;2023-01-27T01:07:32;99445.59;;;-1.24;100.00
57114;BME280;42994;51.606;9.988;2023-01-27T01:09:58;99448.75;;;-1.19;100.00
57114;BME280;42994;51.606;9.988;2023-01-27T01:12:25;99445.38;;;-1.21;100.00
57114;BME280;42994;51.606;9.988;2023-01-27T01:14:52;99445.38;;;-1.21;100.00
57114;BME280;42994;51.606;9.988;2023-01-27T01:17:20;99443.59;;;-1.21;100.00
57114;BME280;42994;51.606;9.988;2023-01-27T01:19:48;99444.56;;;-1.22;100.00
57114;BME280;42994;51.606;9.988;2023-01-27T01:22:14;99455.91;;;-1.21;100.00
57114;BME280;42994;51.606;9.988;2023-01-27T01:24:42;99452.34;;;-1.20;100.00
57114;BME280;42994;51.606;9.988;2023-01-27T01:27:11;99454.97;;;-1.20;100.00
57114;BME280;42994;51.606;9.988;2023-01-27T01:29:38;99454.88;;;-1.19;100.00
57114;BME280;42994;51.606;9.988;2023-01-27T01:32:05;99460.00;;;-1.17;100.00
57114;BME280;42994;51.606;9.988;2023-01-27T01:34:34;99456.44;;;-1.16;100.00
57114;BME280;42994;51.606;9.988;2023-01-27T01:37:01;99454.75;;;-1.17;100.00
57114;BME280;42994;51.606;9.988;2023-01-27T01:39:28;99459.06;;;-1.16;100.00
57114;BME280;42994;51.606;9.988;2023-01-27T01:41:56;99460.88;;;-1.17;100.00
57114;BME280;42994;51.606;9.988;2023-01-27T01:44:25;99459.28;;;-1.19;100.00
57114;BME280;42994;51.606;9.988;2023-01-27T01:46:52;99460.00;;;-1.17;100.00
57114;BME280;42994;51.606;9.988;2023-01-27T01:49:21;99458.34;;;-1.18;100.00
57114;BME280;42994;51.606;9.988;2023-01-27T01:51:52;99461.59;;;-1.14;100.00
57114;BME280;42994;51.606;9.988;2023-01-27T01:54:23;99456.44;;;-1.16;100.00
57114;BME280;42994;51.606;9.988;2023-01-27T01:56:52;99463.59;;;-1.18;100.00
57114;BME280;42994;51.606;9.988;2023-01-27T01:59:24;99458.13;;;-1.15;100.00
57114;BME280;42994;51.606;9.988;2023-01-27T02:01:54;99469.59;;;-1.16;100.00
57114;BME280;42994;51.606;9.988;2023-01-27T02:04:25;99468.66;;;-1.15;100.00
57114;BME280;42994;51.606;9.988;2023-01-27T02:06:57;99467.78;;;-1.16;100.00
57114;BME280;42994;51.606;9.988;2023-01-27T02:09:27;99460.75;;;-1.15;100.00
57114;BME280;42994;51.606;9.988;2023-01-27T02:11:56;99466.84;;;-1.14;100.00
57114;BME280;42994;51.606;9.988;2023-01-27T02:14:24;99461.59;;;-1.14;100.00
57114;BME280;42994;51.606;9.988;2023-01-27T02:16:51;99464.97;;;-1.12;100.00
57114;BME280;42994;51.606;9.988;2023-01-27T02:19:22;99464.00;;;-1.11;100.00
57114;BME280;42994;51.606;9.988;2023-01-27T02:21:50;99463.16;;;-1.12;100.00
57114;BME280;42994;51.606;9.988;2023-01-27T02:24:18;99450.75;;;-1.10;100.00
57114;BME280;42994;51.606;9.988;2023-01-27T02:26:47;99455.91;;;-1.08;100.00
57114;BME280;42994;51.606;9.988;2023-01-27T02:29:15;99458.53;;;-1.08;100.00
57114;BME280;42994;51.606;9.988;2023-01-27T02:31:42;99462.84;;;-1.07;100.00
57114;BME280;42994;51.606;9.988;2023-01-27T02:34:12;99469.88;;;-1.08;100.00
57114;BME280;42994;51.606;9.988;2023-01-27T02:36:44;99467.16;;;-1.06;100.00
57114;BME280;42994;51.606;9.988;2023-01-27T02:39:13;99471.59;;;-1.07;100.00
57114;BME280;42994;51.606;9.988;2023-01-27T02:41:43;99462.84;;;-1.07;100.00
57114;BME280;42994;51.606;9.988;2023-01-27T02:44:12;99451.47;;;-1.08;100.00
57114;BME280;42994;51.606;9.988;2023-01-27T02:46:39;99461.16;;;-1.08;100.00
57114;BME280;42994;51.606;9.988;2023-01-27T02:49:06;99464.63;;;-1.08;100.00
57114;BME280;42994;51.606;9.988;2023-01-27T02:51:35;99461.78;;;-1.05;100.00
57114;BME280;42994;51.606;9.988;2023-01-27T02:54:01;99474.13;;;-1.05;100.00
57114;BME280;42994;51.606;9.988;2023-01-27T02:56:28;99473.28;;;-1.06;100.00
57114;BME280;42994;51.606;9.988;2023-01-27T02:58:56;99476.75;;;-1.05;100.00
57114;BME280;42994;51.606;9.988;2023-01-27T03:01:31;99470.66;;;-1.06;100.00
57114;BME280;42994;51.606;9.988;2023-01-27T03:03:58;99479.28;;;-1.04;100.00
57114;BME280;42994;51.606;9.988;2023-01-27T03:06:27;99473.16;;;-1.04;100.00
57114;BME280;42994;51.606;9.988;2023-01-27T03:08:53;99478.31;;;-1.03;100.00
57114;BME280;42994;51.606;9.988;2023-01-27T03:11:20;99479.16;;;-1.02;100.00
57114;BME280;42994;51.606;9.988;2023-01-27T03:14:02;99478.22;;;-1.01;100.00
57114;BME280;42994;51.606;9.988;2023-01-27T03:16:28;99479.03;;;-1.01;100.00
57114;BME280;42994;51.606;9.988;2023-01-27T03:19:13;99485.91;;;-0.98;100.00
57114;BME280;42994;51.606;9.988;2023-01-27T03:21:40;99483.38;;;-1.00;100.00
57114;BME280;42994;51.606;9.988;2023-01-27T03:24:10;99477.91;;;-0.97;100.00
57114;BME280;42994;51.606;9.988;2023-01-27T03:26:37;99485.91;;;-0.98;100.00
57114;BME280;42994;51.606;9.988;2023-01-27T03:29:07;99490.19;;;-0.97;100.00
57114;BME280;42994;51.606;9.988;2023-01-27T03:31:51;99495.34;;;-0.95;100.00
57114;BME280;42994;51.606;9.988;2023-01-27T03:34:19;99498.72;;;-0.93;100.00
57114;BME280;42994;51.606;9.988;2023-01-27T03:36:49;99502.41;;;-0.96;100.00
57114;BME280;42994;51.606;9.988;2023-01-27T03:39:34;99506.84;;;-0.97;100.00
57114;BME280;42994;51.606;9.988;2023-01-27T03:42:18;99494.53;;;-0.96;100.00
57114;BME280;42994;51.606;9.988;2023-01-27T03:45:03;99499.88;;;-0.98;100.00
57114;BME280;42994;51.606;9.988;2023-01-27T03:47:48;99505.97;;;-0.97;100.00
57114;BME280;42994;51.606;9.988;2023-01-27T03:50:16;99503.25;;;-0.95;100.00
57114;BME280;42994;51.606;9.988;2023-01-27T03:52:43;99510.09;;;-0.93;100.00
57114;BME280;42994;51.606;9.988;2023-01-27T03:55:27;99505.88;;;-0.95;100.00
57114;BME280;42994;51.606;9.988;2023-01-27T03:57:54;99503.34;;;-0.97;100.00
57114;BME280;42994;51.606;9.988;2023-01-27T04:00:21;99504.94;;;-0.94;100.00
57114;BME280;42994;51.606;9.988;2023-01-27T04:02:47;99496.94;;;-0.93;100.00
57114;BME280;42994;51.606;9.988;2023-01-27T04:05:33;99498.72;;;-0.93;100.00
57114;BME280;42994;51.606;9.988;2023-01-27T04:08:17;99500.41;;;-0.92;100.00
57114;BME280;42994;51.606;9.988;2023-01-27T04:10:44;99503.78;;;-0.90;100.00
57114;BME280;42994;51.606;9.988;2023-01-27T04:13:31;99502.09;;;-0.91;100.00
57114;BME280;42994;51.606;9.988;2023-01-27T04:15:56;99502.94;;;-0.91;100.00
57114;BME280;42994;51.606;9.988;2023-01-27T04:18:23;99496.81;;;-0.91;100.00
57114;BME280;42994;51.606;9.988;2023-01-27T04:20:51;99502.84;;;-0.89;100.00
57114;BME280;42994;51.606;9.988;2023-01-27T04:23:17;99496.63;;;-0.88;100.00
57114;BME280;42994;51.606;9.988;2023-01-27T04:25:44;99501.16;;;-0.90;100.00
57114;BME280;42994;51.606;9.988;2023-01-27T04:28:13;99497.34;;;-0.86;100.00
57114;BME280;42994;51.606;9.988;2023-01-27T04:30:40;99498.06;;;-0.84;100.00
57114;BME280;42994;51.606;9.988;2023-01-27T04:33:07;99499.25;;;-0.88;100.00
57114;BME280;42994;51.606;9.988;2023-01-27T04:35:34;99511.25;;;-0.84;100.00
57114;BME280;42994;51.606;9.988;2023-01-27T04:38:02;99505.03;;;-0.83;100.00
57114;BME280;42994;51.606;9.988;2023-01-27T04:40:29;99499.78;;;-0.83;100.00
57114;BME280;42994;51.606;9.988;2023-01-27T04:42:55;99507.66;;;-0.83;100.00
57114;BME280;42994;51.606;9.988;2023-01-27T04:45:22;99502.31;;;-0.82;100.00
57114;BME280;42994;51.606;9.988;2023-01-27T04:47:49;99507.66;;;-0.83;100.00
57114;BME280;42994;51.606;9.988;2023-01-27T04:50:16;99492.59;;;-0.81;100.00
57114;BME280;42994;51.606;9.988;2023-01-27T04:52:43;99507.47;;;-0.80;100.00
57114;BME280;42994;51.606;9.988;2023-01-27T04:55:11;99504.84;;;-0.80;100.00
57114;BME280;42994;51.606;9.988;2023-01-27T04:57:38;99507.34;;;-0.79;100.00
57114;BME280;42994;51.606;9.988;2023-01-27T05:00:05;99511.66;;;-0.78;100.00
57114;BME280;42994;51.606;9.988;2023-01-27T05:02:32;99509.97;;;-0.79;100.00
57114;BME280;42994;51.606;9.988;2023-01-27T05:04:59;99525.03;;;-0.81;100.00
57114;BME280;42994;51.606;9.988;2023-01-27T05:07:28;99514.50;;;-0.81;100.00
57114;BME280;42994;51.606;9.988;2023-01-27T05:09:55;99520.63;;;-0.80;100.00
57114;BME280;42994;51.606;9.988;2023-01-27T05:12:23;99518.94;;;-0.81;100.00
57114;BME280;42994;51.606;9.988;2023-01-27T05:14:50;99519.75;;;-0.81;100.00
57114;BME280;42994;51.606;9.988;2023-01-27T05:17:17;99520.63;;;-0.80;100.00
57114;BME280;42994;51.606;9.988;2023-01-27T05:19:43;99521.47;;;-0.80;100.00
57114;BME280;42994;51.606;9.988;2023-01-27T05:22:10;99533.88;;;-0.82;100.00
57114;BME280;42994;51.606;9.988;2023-01-27T05:24:36;99535.78;;;-0.84;100.00
57114;BME280;42994;51.606;9.988;2023-01-27T05:27:03;99542.63;;;-0.81;100.00
57114;BME280;42994;51.606;9.988;2023-01-27T05:29:31;99529.34;;;-0.80;100.00
57114;BME280;42994;51.606;9.988;2023-01-27T05:31:58;99541.69;;;-0.80;100.00
57114;BME280;42994;51.606;9.988;2023-01-27T05:34:25;99545.78;;;-0.76;100.00
57114;BME280;42994;51.606;9.988;2023-01-27T05:36:52;99550.22;;;-0.76;100.00
57114;BME280;42994;51.606;9.988;2023-01-27T05:39:18;99541.44;;;-0.77;100.00
57114;BME280;42994;51.606;9.988;2023-01-27T05:41:45;99548.63;;;-0.79;100.00
57114;BME280;42994;51.606;9.988;2023-01-27T05:44:12;99545.03;;;-0.78;100.00
57114;BME280;42994;51.606;9.988;2023-01-27T05:46:40;99553.88;;;-0.79;100.00
57114;BME280;42994;51.606;9.988;2023-01-27T05:49:07;99554.72;;;-0.79;100.00
57114;BME280;42994;51.606;9.988;2023-01-27T05:51:35;99557.88;;;-0.73;100.00
57114;BME280;42994;51.606;9.988;2023-01-27T05:54:02;99564.41;;;-0.79;100.00
57114;BME280;42994;51.606;9.988;2023-01-27T05:56:29;99561.56;;;-0.76;100.00
57114;BME280;42994;51.606;9.988;2023-01-27T05:58:57;99561.47;;;-0.74;100.00
57114;BME280;42994;51.606;9.988;2023-01-27T06:01:25;99569.28;;;-0.73;100.00
57114;BME280;42994;51.606;9.988;2023-01-27T06:03:53;99564.00;;;-0.73;100.00
57114;BME280;42994;51.606;9.988;2023-01-27T06:06:21;99570.84;;;-0.70;100.00
57114;BME280;42994;51.606;9.988;2023-01-27T06:08:49;99572.72;;;-0.72;100.00
57114;BME280;42994;51.606;9.988;2023-01-27T06:11:17;99570.94;;;-0.72;100.00
57114;BME280;42994;51.606;9.988;2023-01-27T06:13:45;99565.66;;;-0.72;100.00
57114;BME280;42994;51.606;9.988;2023-01-27T06:16:14;99566.63;;;-0.73;100.00
57114;BME280;42994;51.606;9.988;2023-01-27T06:18:42;99570.94;;;-0.72;100.00
57114;BME280;42994;51.606;9.988;2023-01-27T06:21:11;99575.38;;;-0.72;100.00
57114;BME280;42994;51.606;9.988;2023-01-27T06:23:39;99574.31;;;-0.70;100.00
57114;BME280;42994;51.606;9.988;2023-01-27T06:26:07;99577.91;;;-0.71;100.00
57114;BME280;42994;51.606;9.988;2023-01-27T06:28:34;99573.38;;;-0.69;100.00
57114;BME280;42994;51.606;9.988;2023-01-27T06:31:05;99579.47;;;-0.68;100.00
57114;BME280;42994;51.606;9.988;2023-01-27T06:33:32;99592.72;;;-0.70;100.00
57114;BME280;42994;51.606;9.988;2023-01-27T06:36:01;99595.47;;;-0.71;100.00
57114;BME280;42994;51.606;9.988;2023-01-27T06:38:30;99598.97;;;-0.71;100.00
57114;BME280;42994;51.606;9.988;2023-01-27T06:40:56;99600.53;;;-0.68;100.00
57114;BME280;42994;51.606;9.988;2023-01-27T06:43:23;99602.22;;;-0.67;100.00
57114;BME280;42994;51.606;9.988;2023-01-27T06:45:50;99597.88;;;-0.68;100.00
57114;BME280;42994;51.606;9.988;2023-01-27T06:48:17;99594.44;;;-0.69;100.00
57114;BME280;42994;51.606;9.988;2023-01-27T06:50:44;99606.41;;;-0.65;100.00
57114;BME280;42994;51.606;9.988;2023-01-27T06:53:11;99610.13;;;-0.67;100.00
57114;BME280;42994;51.606;9.988;2023-01-27T06:55:39;99614.31;;;-0.65;100.00
57114;BME280;42994;51.606;9.988;2023-01-27T06:58:07;99618.84;;;-0.67;100.00
57114;BME280;42994;51.606;9.988;2023-01-27T07:00:33;99610.03;;;-0.66;100.00
57114;BME280;42994;51.606;9.988;2023-01-27T07:03:00;99613.50;;;-0.65;100.00
57114;BME280;42994;51.606;9.988;2023-01-27T07:05:27;99619.59;;;-0.65;100.00
57114;BME280;42994;51.606;9.988;2023-01-27T07:07:53;99617.91;;;-0.66;100.00
57114;BME280;42994;51.606;9.988;2023-01-27T07:10:20;99629.38;;;-0.67;100.00
57114;BME280;42994;51.606;9.988;2023-01-27T07:12:48;99622.31;;;-0.66;100.00
57114;BME280;42994;51.606;9.988;2023-01-27T07:15:15;99634.56;;;-0.65;100.00
57114;BME280;42994;51.606;9.988;2023-01-27T07:17:41;99632.94;;;-0.68;100.00
57114;BME280;42994;51.606;9.988;2023-01-27T07:20:11;99633.81;;;-0.67;100.00
57114;BME280;42994;51.606;9.988;2023-01-27T07:22:38;99639.91;;;-0.67;100.00
57114;BME280;42994;51.606;9.988;2023-01-27T07:25:06;99638.13;;;-0.66;100.00
57114;BME280;42994;51.606;9.988;2023-01-27T07:27:33;99642.34;;;-0.64;100.00
57114;BME280;42994;51.606;9.988;2023-01-27T07:30:00;99657.28;;;-0.64;100.00
57114;BME280;42994;51.606;9.988;2023-01-27T07:32:27;99649.38;;;-0.64;100.00
57114;BME280;42994;51.606;9.988;2023-01-27T07:34:54;99655.28;;;-0.61;100.00
57114;BME280;42994;51.606;9.988;2023-01-27T07:37:20;99650.03;;;-0.61;100.00
57114;BME280;42994;51.606;9.988;2023-01-27T07:39:47;99654.34;;;-0.60;100.00
57114;BME280;42994;51.606;9.988;2023-01-27T07:42:14;99650.75;;;-0.59;100.00
57114;BME280;42994;51.606;9.988;2023-01-27T07:44:40;99653.50;;;-0.60;100.00
57114;BME280;42994;51.606;9.988;2023-01-27T07:47:08;99654.25;;;-0.58;100.00
57114;BME280;42994;51.606;9.988;2023-01-27T07:49:35;99649.72;;;-0.56;100.00
57114;BME280;42994;51.606;9.988;2023-01-27T07:52:01;99649.81;;;-0.57;100.00
57114;BME280;42994;51.606;9.988;2023-01-27T07:54:28;99649.81;;;-0.57;100.00
57114;BME280;42994;51.606;9.988;2023-01-27T07:56:55;99656.78;;;-0.56;100.00
57114;BME280;42994;51.606;9.988;2023-01-27T07:59:22;99660.25;;;-0.56;100.00
57114;BME280;42994;51.606;9.988;2023-01-27T08:01:48;99660.88;;;-0.52;100.00
57114;BME280;42994;51.606;9.988;2023-01-27T08:04:16;99661.72;;;-0.52;100.00
57114;BME280;42994;51.606;9.988;2023-01-27T08:06:43;99671.31;;;-0.51;100.00
57114;BME280;42994;51.606;9.988;2023-01-27T08:09:10;99667.72;;;-0.50;100.00
57114;BME280;42994;51.606;9.988;2023-01-27T08:11:36;99670.25;;;-0.48;100.00
57114;BME280;42994;51.606;9.988;2023-01-27T08:14:03;99665.94;;;-0.49;100.00
57114;BME280;42994;51.606;9.988;2023-01-27T08:16:29;99672.69;;;-0.45;100.00
57114;BME280;42994;51.606;9.988;2023-01-27T08:18:56;99671.00;;;-0.46;100.00
57114;BME280;42994;51.606;9.988;2023-01-27T08:21:24;99668.34;;;-0.46;100.00
57114;BME280;42994;51.606;9.988;2023-01-27T08:23:56;99668.47;;;-0.48;100.00
57114;BME280;42994;51.606;9.988;2023-01-27T08:26:23;99671.00;;;-0.46;100.00
57114;BME280;42994;51.606;9.988;2023-01-27T08:28:50;99676.16;;;-0.45;100.00
57114;BME280;42994;51.606;9.988;2023-01-27T08:31:16;99670.06;;;-0.45;100.00
57114;BME280;42994;51.606;9.988;2023-01-27T08:33:45;99673.41;;;-0.43;100.00
57114;BME280;42994;51.606;9.988;2023-01-27T08:36:16;99681.31;;;-0.43;100.00
57114;BME280;42994;51.606;9.988;2023-01-27T08:38:44;99676.06;;;-0.43;100.00
57114;BME280;42994;51.606;9.988;2023-01-27T08:41:16;99682.16;;;-0.43;100.00
57114;BME280;42994;51.606;9.988;2023-01-27T08:43:43;99683.84;;;-0.42;100.00
57114;BME280;42994;51.606;9.988;2023-01-27T08:46:10;99674.06;;;-0.40;100.00
57114;BME280;42994;51.606;9.988;2023-01-27T08:48:37;99675.72;;;-0.39;100.00
57114;BME280;42994;51.606;9.988;2023-01-27T08:51:04;99683.44;;;-0.35;100.00
57114;BME280;42994;51.606;9.988;2023-01-27T08:53:32;99682.59;;;-0.36;100.00
57114;BME280;42994;51.606;9.988;2023-01-27T08:56:04;99685.84;;;-0.32;100.00
57114;BME280;42994;51.606;9.988;2023-01-27T08:58:32;99691.97;;;-0.32;100.00
57114;BME280;42994;51.606;9.988;2023-01-27T09:00:59;99695.31;;;-0.30;100.00
57114;BME280;42994;51.606;9.988;2023-01-27T09:03:27;99691.97;;;-0.32;100.00
57114;BME280;42994;51.606;9.988;2023-01-27T09:05:54;99697.03;;;-0.29;100.00
57114;BME280;42994;51.606;9.988;2023-01-27T09:08:21;99708.31;;;-0.27;100.00
57114;BME280;42994;51.606;9.988;2023-01-27T09:10:47;99708.31;;;-0.27;100.00
57114;BME280;42994;51.606;9.988;2023-01-27T09:13:15;99715.38;;;-0.27;100.00
57114;BME280;42994;51.606;9.988;2023-01-27T09:15:42;99712.31;;;-0.21;100.00
57114;BME280;42994;51.606;9.988;2023-01-27T09:18:10;99702.59;;;-0.21;100.00
57114;BME280;42994;51.606;9.988;2023-01-27T09:20:37;99705.03;;;-0.17;100.00
57114;BME280;42994;51.606;9.988;2023-01-27T09:23:04;99714.09;;;-0.22;100.00
57114;BME280;42994;51.606;9.988;2023-01-27T09:25:31;99710.41;;;-0.19;100.00
57114;BME280;42994;51.606;9.988;2023-01-27T09:27:58;99708.50;;;-0.17;100.00
57114;BME280;42994;51.606;9.988;2023-01-27T09:30:27;99721.56;;;-0.15;100.00
57114;BME280;42994;51.606;9.988;2023-01-27T09:32:56;99718.72;;;-0.12;100.00
57114;BME280;42994;51.606;9.988;2023-01-27T09:35:23;99718.28;;;-0.06;100.00
57114;BME280;42994;51.606;9.988;2023-01-27T09:37:52;99726.19;;;-0.06;100.00
57114;BME280;42994;51.606;9.988;2023-01-27T09:40:28;99726.72;;;-0.01;100.00
57114;BME280;42994;51.606;9.988;2023-01-27T09:43:14;99718.00;;;-0.02;100.00
57114;BME280;42994;51.606;9.988;2023-01-27T09:46:07;99731.38;;;0.08;100.00
57114;BME280;42994;51.606;9.988;2023-01-27T09:48:48;99726.94;;;0.09;100.00
57114;BME280;42994;51.606;9.988;2023-01-27T09:51:30;99729.06;;;0.16;100.00
57114;BME280;42994;51.606;9.988;2023-01-27T09:54:19;99727.88;;;0.21;100.00
57114;BME280;42994;51.606;9.988;2023-01-27T09:56:52;99730.28;;;0.24;100.00
57114;BME280;42994;51.606;9.988;2023-01-27T09:59:47;99742.41;;;0.26;100.00
57114;BME280;42994;51.606;9.988;2023-01-27T10:02:29;99743.03;;;0.30;100.00
57114;BME280;42994;51.606;9.988;2023-01-27T10:08:28;99733.75;;;0.37;100.00
57114;BME280;42994;51.606;9.988;2023-01-27T10:11:07;99731.41;;;0.45;100.00
57114;BME280;42994;51.606;9.988;2023-01-27T10:13:44;99732.38;;;0.44;100.00
57114;BME280;42994;51.606;9.988;2023-01-27T10:16:30;99734.66;;;0.49;100.00
57114;BME280;42994;51.606;9.988;2023-01-27T10:19:11;99738.66;;;0.54;100.00
57114;BME280;42994;51.606;9.988;2023-01-27T10:21:46;99728.81;;;0.56;100.00
57114;BME280;42994;51.606;9.988;2023-01-27T10:24:24;99730.53;;;0.57;100.00
57114;BME280;42994;51.606;9.988;2023-01-27T10:26:57;99727.69;;;0.61;100.00
57114;BME280;42994;51.606;9.988;2023-01-27T10:29:32;99726.72;;;0.62;100.00
57114;BME280;42994;51.606;9.988;2023-01-27T10:32:05;99732.72;;;0.64;100.00
57114;BME280;42994;51.606;9.988;2023-01-27T10:34:36;99729.25;;;0.63;100.00
57114;BME280;42994;51.606;9.988;2023-01-27T10:37:13;99733.13;;;0.70;100.00
57114;BME280;42994;51.606;9.988;2023-01-27T10:39:51;99738.09;;;0.75;100.00
57114;BME280;42994;51.606;9.988;2023-01-27T10:42:25;99730.91;;;0.77;100.00
57114;BME280;42994;51.606;9.988;2023-01-27T10:45:05;99737.00;;;0.77;100.00
57114;BME280;42994;51.606;9.988;2023-01-27T10:47:51;99732.13;;;0.84;100.00
57114;BME280;42994;51.606;9.988;2023-01-27T10:50:26;99737.16;;;0.87;100.00
57114;BME280;42994;51.606;9.988;2023-01-27T10:52:59;99736.75;;;0.93;100.00
57114;BME280;42994;51.606;9.988;2023-01-27T10:55:28;99733.13;;;0.94;100.00
57114;BME280;42994;51.606;9.988;2023-01-27T10:58:03;99737.47;;;0.95;100.00
57114;BME280;42994;51.606;9.988;2023-01-27T11:00:33;99743.59;;;0.96;100.00
57114;BME280;42994;51.606;9.988;2023-01-27T11:03:09;99725.09;;;0.96;100.00
57114;BME280;42994;51.606;9.988;2023-01-27T11:05:42;99728.25;;;1.01;100.00
57114;BME280;42994;51.606;9.988;2023-01-27T11:08:14;99723.19;;;0.98;100.00
57114;BME280;42994;51.606;9.988;2023-01-27T11:10:44;99725.50;;;1.03;100.00
57114;BME280;42994;51.606;9.988;2023-01-27T11:13:26;99724.53;;;1.04;100.00
57114;BME280;42994;51.606;9.988;2023-01-27T11:15:55;99727.91;;;1.06;100.00
57114;BME280;42994;51.606;9.988;2023-01-27T11:18:25;99729.47;;;1.08;100.00
57114;BME280;42994;51.606;9.988;2023-01-27T11:20:58;99730.59;;;1.17;100.00
57114;BME280;42994;51.606;9.988;2023-01-27T11:23:28;99722.69;;;1.17;100.00
57114;BME280;42994;51.606;9.988;2023-01-27T11:26:01;99726.66;;;1.23;100.00
57114;BME280;42994;51.606;9.988;2023-01-27T11:28:35;99728.34;;;1.24;100.00
57114;BME280;42994;51.606;9.988;2023-01-27T11:31:10;99717.69;;;1.37;100.00
57114;BME280;42994;51.606;9.988;2023-01-27T11:33:49;99724.44;;;1.41;100.00
57114;BME280;42994;51.606;9.988;2023-01-27T11:36:24;99724.66;;;1.38;100.00
57114;BME280;42994;51.606;9.988;2023-01-27T11:38:51;99723.84;;;1.37;100.00
57114;BME280;42994;51.606;9.988;2023-01-27T11:41:18;99720.13;;;1.51;100.00
57114;BME280;42994;51.606;9.988;2023-01-27T11:43:45;99723.75;;;1.50;100.00
57114;BME280;42994;51.606;9.988;2023-01-27T11:46:15;99729.19;;;1.60;100.00
57114;BME280;42994;51.606;9.988;2023-01-27T11:48:45;99719.53;;;1.59;100.00
57114;BME280;42994;51.606;9.988;2023-01-27T11:51:17;99721.84;;;1.52;100.00
57114;BME280;42994;51.606;9.988;2023-01-27T11:53:51;99719.09;;;1.65;100.00
57114;BME280;42994;51.606;9.988;2023-01-27T11:56:18;99719.13;;;1.76;100.00
57114;BME280;42994;51.606;9.988;2023-01-27T11:58:50;99728.13;;;1.73;100.00
57114;BME280;42994;51.606;9.988;2023-01-27T12:01:20;99720.53;;;1.69;100.00
57114;BME280;42994;51.606;9.988;2023-01-27T12:03:53;99713.59;;;1.79;100.00
57114;BME280;42994;51.606;9.988;2023-01-27T12:06:30;99725.22;;;1.77;100.00
57114;BME280;42994;51.606;9.988;2023-01-27T12:08:59;99717.91;;;1.80;100.00
57114;BME280;42994;51.606;9.988;2023-01-27T12:11:27;99727.03;;;1.76;100.00
57114;BME280;42994;51.606;9.988;2023-01-27T12:13:56;99727.66;;;1.80;100.00
57114;BME280;42994;51.606;9.988;2023-01-27T12:16:26;99730.41;;;1.78;100.00
57114;BME280;42994;51.606;9.988;2023-01-27T12:18:58;99734.75;;;1.79;100.00
57114;BME280;42994;51.606;9.988;2023-01-27T12:21:35;99730.63;;;1.75;100.00
57114;BME280;42994;51.606;9.988;2023-01-27T12:24:15;99733.53;;;1.83;100.00
57114;BME280;42994;51.606;9.988;2023-01-27T12:26:46;99738.13;;;1.81;100.00
57114;BME280;42994;51.606;9.988;2023-01-27T12:29:16;99732.94;;;1.80;100.00
57114;BME280;42994;51.606;9.988;2023-01-27T12:31:44;99733.06;;;1.78;100.00
57114;BME280;42994;51.606;9.988;2023-01-27T12:34:21;99730.41;;;1.78;100.00
57114;BME280;42994;51.606;9.988;2023-01-27T12:36:49;99733.06;;;1.78;100.00
57114;BME280;42994;51.606;9.988;2023-01-27T12:39:26;99727.66;;;1.80;100.00
57114;BME280;42994;51.606;9.988;2023-01-27T12:41:55;99734.25;;;1.74;100.00
57114;BME280;42994;51.606;9.988;2023-01-27T12:44:22;99736.91;;;1.74;100.00
57114;BME280;42994;51.606;9.988;2023-01-27T12:46:57;99736.50;;;1.67;100.00
57114;BME280;42994;51.606;9.988;2023-01-27T12:49:31;99738.22;;;1.68;100.00
57114;BME280;42994;51.606;9.988;2023-01-27T12:52:01;99730.88;;;1.61;100.00
57114;BME280;42994;51.606;9.988;2023-01-27T12:54:31;99725.22;;;1.65;100.00
57114;BME280;42994;51.606;9.988;2023-01-27T12:57:01;99728.94;;;1.63;100.00
57114;BME280;42994;51.606;9.988;2023-01-27T12:59:28;99735.91;;;1.64;100.00
57114;BME280;42994;51.606;9.988;2023-01-27T13:01:58;99736.00;;;1.62;100.00
57114;BME280;42994;51.606;9.988;2023-01-27T13:04:26;99733.38;;;1.62;100.00
57114;BME280;42994;51.606;9.988;2023-01-27T13:06:54;99732.31;;;1.65;100.00
57114;BME280;42994;51.606;9.988;2023-01-27T13:09:25;99739.88;;;1.69;100.00
57114;BME280;42994;51.606;9.988;2023-01-27T13:11:56;99732.94;;;1.68;100.00